Time,TemperatureF,DewpointF,PressureIn,WindDirection,WindDirectionDegrees,WindSpeedMPH,WindSpeedGustMPH,Humidity,HourlyPrecipIn,Conditions,Clouds,dailyrainin,SoftwareType,DateUTC
2014-01-14 00:00:00,40.7,32.7,30.00,WSW,248,0.0,0.0,73,0.00,,,0.00,WUHU216HW,2014-01-14 05:00:00,
2014-01-14 00:01:00,40.7,32.7,30.00,WSW,248,0.0,0.0,73,0.00,,,0.00,WUHU216HW,2014-01-14 05:01:00,
2014-01-14 00:02:00,40.7,32.7,30.00,WSW,248,0.0,0.0,73,0.00,,,0.00,WUHU216HW,2014-01-14 05:02:00,
2014-01-14 00:07:00,40.7,32.7,30.00,WSW,248,0.0,0.0,73,0.00,,,0.00,WUHU216HW,2014-01-14 05:07:00,
2014-01-14 00:30:00,39.6,32.7,30.02,NNW,338,1.1,1.1,76,0.00,,,0.00,WUHU216HW,2014-01-14 05:30:00,
2014-01-14 00:35:00,39.6,32.7,30.02,NNW,338,1.1,1.1,76,0.00,,,0.00,WUHU216HW,2014-01-14 05:35:00,
2014-01-14 01:00:00,40.3,32.9,30.03,WNW,293,0.4,0.4,75,0.00,,,0.00,WUHU216HW,2014-01-14 06:00:00,
2014-01-14 01:05:00,40.3,32.9,30.03,WNW,293,0.4,0.4,75,0.00,,,0.00,WUHU216HW,2014-01-14 06:05:00,
2014-01-14 01:30:00,40.5,32.9,30.05,West,270,1.1,1.1,74,0.00,,,0.00,WUHU216HW,2014-01-14 06:30:00,
2014-01-14 01:35:00,40.5,32.9,30.05,West,270,1.1,1.1,74,0.00,,,0.00,WUHU216HW,2014-01-14 06:35:00,
2014-01-14 01:38:00,40.5,32.9,30.05,West,270,1.1,1.1,74,0.00,,,0.00,WUHU216HW,2014-01-14 06:38:00,
2014-01-14 02:00:00,40.0,32.7,30.05,West,270,2.0,2.0,75,0.00,,,0.00,WUHU216HW,2014-01-14 07:00:00,
2014-01-14 02:05:00,40.0,32.7,30.05,West,270,2.0,2.0,75,0.00,,,0.00,WUHU216HW,2014-01-14 07:05:00,
2014-01-14 02:30:00,39.4,32.1,30.07,NW,315,0.2,0.2,75,0.00,,,0.00,WUHU216HW,2014-01-14 07:30:00,
2014-01-14 02:35:00,39.4,32.1,30.07,NW,315,0.2,0.2,75,0.00,,,0.00,WUHU216HW,2014-01-14 07:35:00,
2014-01-14 03:00:00,38.7,32.1,30.08,West,270,1.1,1.1,77,0.00,,,0.00,WUHU216HW,2014-01-14 08:00:00,
2014-01-14 03:05:00,38.7,32.1,30.08,West,270,1.1,1.1,77,0.00,,,0.00,WUHU216HW,2014-01-14 08:05:00,
2014-01-14 03:30:00,40.3,31.0,30.08,SW,225,0.4,0.4,69,0.00,,,0.00,WUHU216HW,2014-01-14 08:30:00,
2014-01-14 03:35:00,40.3,31.0,30.08,SW,225,0.4,0.4,69,0.00,,,0.00,WUHU216HW,2014-01-14 08:35:00,
2014-01-14 04:00:00,40.7,31.0,30.10,ESE,113,1.1,1.1,68,0.00,,,0.00,WUHU216HW,2014-01-14 09:00:00,
2014-01-14 04:05:00,40.7,30.5,30.10,East,90,0.2,1.1,67,0.00,,,0.00,WUHU216HW,2014-01-14 09:05:00,
2014-01-14 04:10:00,40.7,30.5,30.10,East,90,0.2,0.2,67,0.00,,,0.00,WUHU216HW,2014-01-14 09:10:00,
2014-01-14 04:30:00,40.7,31.0,30.11,West,270,0.7,0.7,68,0.00,,,0.00,WUHU216HW,2014-01-14 09:30:00,
2014-01-14 04:35:00,40.7,31.0,30.11,West,270,0.7,0.7,68,0.00,,,0.00,WUHU216HW,2014-01-14 09:35:00,
2014-01-14 05:00:00,37.8,30.6,30.13,West,270,0.0,0.0,75,0.00,,,0.00,WUHU216HW,2014-01-14 10:00:00,
2014-01-14 05:05:00,37.6,30.4,30.13,West,270,0.0,0.0,75,0.00,,,0.00,WUHU216HW,2014-01-14 10:05:00,
2014-01-14 05:10:00,37.6,30.4,30.13,West,270,0.0,0.0,75,0.00,,,0.00,WUHU216HW,2014-01-14 10:10:00,
2014-01-14 05:30:00,37.6,30.4,30.14,West,270,0.9,0.9,75,0.00,,,0.00,WUHU216HW,2014-01-14 10:30:00,
2014-01-14 05:35:00,37.6,30.4,30.14,West,270,0.9,0.9,75,0.00,,,0.00,WUHU216HW,2014-01-14 10:35:00,
2014-01-14 06:00:00,36.0,29.8,30.15,West,270,1.6,1.6,78,0.00,,,0.00,WUHU216HW,2014-01-14 11:00:00,
2014-01-14 06:05:00,36.0,29.8,30.15,West,270,1.6,1.6,78,0.00,,,0.00,WUHU216HW,2014-01-14 11:05:00,
2014-01-14 06:10:00,36.0,29.8,30.15,West,270,1.6,1.6,78,0.00,,,0.00,WUHU216HW,2014-01-14 11:10:00,
2014-01-14 06:30:00,37.8,31.2,30.15,WNW,293,0.0,0.0,77,0.00,,,0.00,WUHU216HW,2014-01-14 11:30:00,
2014-01-14 06:35:00,37.8,31.2,30.15,WNW,293,0.0,0.0,77,0.00,,,0.00,WUHU216HW,2014-01-14 11:35:00,
2014-01-14 07:00:00,35.8,30.2,30.17,West,270,0.0,0.0,80,0.00,,,0.00,WUHU216HW,2014-01-14 12:00:00,
2014-01-14 07:05:00,36.0,30.4,30.17,West,270,0.2,0.2,80,0.00,,,0.00,WUHU216HW,2014-01-14 12:05:00,
2014-01-14 07:10:00,36.0,30.4,30.17,West,270,0.2,0.2,80,0.00,,,0.00,WUHU216HW,2014-01-14 12:10:00,
2014-01-14 07:30:00,34.4,29.1,30.18,West,270,0.0,0.0,81,0.00,,,0.00,WUHU216HW,2014-01-14 12:30:00,
2014-01-14 07:35:00,34.4,29.1,30.18,West,270,0.0,0.0,81,0.00,,,0.00,WUHU216HW,2014-01-14 12:35:00,
2014-01-14 08:00:00,32.2,28.3,30.19,WNW,293,0.4,0.4,85,0.00,,,0.00,WUHU216HW,2014-01-14 13:00:00,
2014-01-14 08:05:00,32.2,28.3,30.19,WNW,293,1.1,1.1,85,0.00,,,0.00,WUHU216HW,2014-01-14 13:05:00,
2014-01-14 08:10:00,32.2,28.3,30.19,WNW,293,1.1,1.1,85,0.00,,,0.00,WUHU216HW,2014-01-14 13:10:00,
2014-01-14 08:30:00,31.3,27.9,30.21,WNW,293,0.7,0.7,87,0.00,,,0.00,WUHU216HW,2014-01-14 13:30:00,
2014-01-14 08:35:00,31.3,27.9,30.21,WNW,293,0.7,0.7,87,0.00,,,0.00,WUHU216HW,2014-01-14 13:35:00,
2014-01-14 09:00:00,31.7,28.6,30.20,WNW,293,1.1,1.1,88,0.00,,,0.00,WUHU216HW,2014-01-14 14:00:00,
2014-01-14 09:05:00,31.7,28.6,30.20,WNW,293,1.1,1.1,88,0.00,,,0.00,WUHU216HW,2014-01-14 14:05:00,
2014-01-14 09:30:00,31.5,28.1,30.20,NW,315,0.2,0.2,87,0.00,,,0.00,WUHU216HW,2014-01-14 14:30:00,
2014-01-14 09:35:00,31.5,28.1,30.20,NW,315,0.2,0.2,87,0.00,,,0.00,WUHU216HW,2014-01-14 14:35:00,
2014-01-14 10:00:00,31.0,28.2,30.22,NW,315,0.2,0.2,89,0.00,,,0.00,WUHU216HW,2014-01-14 15:00:00,
2014-01-14 10:05:00,31.0,28.2,30.22,NW,315,0.2,0.2,89,0.00,,,0.00,WUHU216HW,2014-01-14 15:05:00,
2014-01-14 10:30:00,33.3,29.5,30.22,SW,225,0.4,0.4,86,0.00,,,0.00,WUHU216HW,2014-01-14 15:30:00,
2014-01-14 10:35:00,33.3,29.5,30.22,SW,225,0.4,0.4,86,0.00,,,0.00,WUHU216HW,2014-01-14 15:35:00,
2014-01-14 11:00:00,34.2,29.8,30.23,WNW,293,0.9,0.9,84,0.00,,,0.00,WUHU216HW,2014-01-14 16:00:00,
2014-01-14 11:05:00,34.2,29.8,30.23,WNW,293,0.9,0.9,84,0.00,,,0.00,WUHU216HW,2014-01-14 16:05:00,
2014-01-14 11:30:00,35.3,30.2,30.23,NNW,338,0.2,0.2,82,0.00,,,0.00,WUHU216HW,2014-01-14 16:30:00,
2014-01-14 11:35:00,35.3,30.2,30.23,NNW,338,0.2,0.2,82,0.00,,,0.00,WUHU216HW,2014-01-14 16:35:00,
2014-01-14 12:00:00,36.7,30.8,30.25,WSW,248,0.9,0.9,79,0.00,,,0.00,WUHU216HW,2014-01-14 17:00:00,
2014-01-14 12:05:00,36.7,30.8,30.25,WSW,248,0.9,0.9,79,0.00,,,0.00,WUHU216HW,2014-01-14 17:05:00,
2014-01-14 12:30:00,36.9,30.7,30.24,WNW,293,0.9,0.9,78,0.00,,,0.00,WUHU216HW,2014-01-14 17:30:00,
2014-01-14 12:35:00,36.9,30.7,30.24,WNW,293,0.9,0.9,78,0.00,,,0.00,WUHU216HW,2014-01-14 17:35:00,
2014-01-14 13:00:00,37.6,31.4,30.25,North,0,0.4,0.4,78,0.00,,,0.00,WUHU216HW,2014-01-14 18:00:00,
2014-01-14 13:05:00,37.6,31.4,30.25,North,0,0.4,0.4,78,0.00,,,0.00,WUHU216HW,2014-01-14 18:05:00,
2014-01-14 13:30:00,38.5,32.3,30.26,NW,315,0.4,0.4,78,0.00,,,0.00,WUHU216HW,2014-01-14 18:30:00,
2014-01-14 13:35:00,38.5,32.3,30.26,NW,315,0.4,0.4,78,0.00,,,0.00,WUHU216HW,2014-01-14 18:35:00,
2014-01-14 14:00:00,40.0,32.7,30.24,WNW,293,0.7,0.7,75,0.00,,,0.00,WUHU216HW,2014-01-14 19:00:00,
2014-01-14 14:05:00,40.0,32.7,30.24,WNW,293,0.7,0.7,75,0.00,,,0.00,WUHU216HW,2014-01-14 19:05:00,
2014-01-14 14:30:00,40.7,33.0,30.24,WNW,293,0.4,0.4,74,0.00,,,0.00,WUHU216HW,2014-01-14 19:30:00,
2014-01-14 14:35:00,40.7,33.0,30.24,WNW,293,0.4,0.4,74,0.00,,,0.00,WUHU216HW,2014-01-14 19:35:00,
2014-01-14 15:00:00,41.0,33.3,30.23,WNW,293,0.2,0.2,74,0.00,,,0.00,WUHU216HW,2014-01-14 20:00:00,
2014-01-14 15:05:00,41.0,33.3,30.23,WNW,293,0.2,0.2,74,0.00,,,0.00,WUHU216HW,2014-01-14 20:05:00,
2014-01-14 15:30:00,41.4,33.0,30.22,West,270,0.4,0.4,72,0.00,,,0.00,WUHU216HW,2014-01-14 20:30:00,
2014-01-14 15:35:00,41.4,33.0,30.22,West,270,0.4,0.4,72,0.00,,,0.00,WUHU216HW,2014-01-14 20:35:00,
2014-01-14 16:00:00,41.4,33.0,30.22,WSW,248,0.7,0.7,72,0.00,,,0.00,WUHU216HW,2014-01-14 21:00:00,
2014-01-14 16:05:00,41.4,33.0,30.22,WSW,248,0.7,0.7,72,0.00,,,0.00,WUHU216HW,2014-01-14 21:05:00,
2014-01-14 16:30:00,41.4,33.0,30.20,NW,315,0.0,0.0,72,0.00,,,0.00,WUHU216HW,2014-01-14 21:30:00,
2014-01-14 16:35:00,41.4,33.0,30.20,NW,315,0.0,0.0,72,0.00,,,0.00,WUHU216HW,2014-01-14 21:35:00,
2014-01-14 17:00:00,41.8,33.4,30.20,WNW,293,2.9,2.9,72,0.00,,,0.00,WUHU216HW,2014-01-14 22:00:00,
2014-01-14 17:05:00,41.8,33.4,30.20,WNW,293,2.9,2.9,72,0.00,,,0.00,WUHU216HW,2014-01-14 22:05:00,
2014-01-14 17:30:00,41.4,33.7,30.20,NNW,338,0.4,0.4,74,0.00,,,0.00,WUHU216HW,2014-01-14 22:30:00,
2014-01-14 17:35:00,41.4,33.7,30.20,NNW,338,0.4,0.4,74,0.00,,,0.00,WUHU216HW,2014-01-14 22:35:00,
2014-01-14 18:00:00,41.4,33.7,30.20,WSW,248,0.2,0.2,74,0.00,,,0.00,WUHU216HW,2014-01-14 23:00:00,
2014-01-14 18:05:00,41.4,33.7,30.20,WSW,248,0.2,0.2,74,0.00,,,0.00,WUHU216HW,2014-01-14 23:05:00,
2014-01-14 18:10:00,41.4,33.7,30.20,WSW,248,0.2,0.2,74,0.00,,,0.00,WUHU216HW,2014-01-14 23:10:00,
2014-01-14 18:30:00,41.2,33.5,30.19,SW,225,0.7,0.7,74,0.00,,,0.00,WUHU216HW,2014-01-14 23:30:00,
2014-01-14 18:35:00,41.2,33.5,30.19,SW,225,0.7,0.7,74,0.00,,,0.00,WUHU216HW,2014-01-14 23:35:00,
2014-01-14 19:00:00,41.4,33.7,30.20,WNW,293,0.4,0.4,74,0.00,,,0.00,WUHU216HW,2014-01-15 00:00:00,
2014-01-14 19:05:00,41.4,33.7,30.20,WNW,293,0.4,0.4,74,0.00,,,0.00,WUHU216HW,2014-01-15 00:05:00,
2014-01-14 19:10:00,41.4,33.7,30.20,WNW,293,0.4,0.4,74,0.00,,,0.00,WUHU216HW,2014-01-15 00:10:00,
2014-01-14 19:30:00,41.0,33.3,30.18,SW,225,0.2,0.2,74,0.00,,,0.00,WUHU216HW,2014-01-15 00:30:00,
2014-01-14 19:35:00,41.0,33.3,30.18,SW,225,0.2,0.2,74,0.00,,,0.00,WUHU216HW,2014-01-15 00:35:00,
2014-01-14 20:00:00,41.0,33.3,30.18,NW,315,0.2,0.2,74,0.00,,,0.00,WUHU216HW,2014-01-15 01:00:00,
2014-01-14 20:05:00,41.0,33.3,30.18,NW,315,0.2,0.2,74,0.00,,,0.00,WUHU216HW,2014-01-15 01:05:00,
2014-01-14 20:10:00,41.0,33.3,30.18,NW,315,0.2,0.2,74,0.00,,,0.00,WUHU216HW,2014-01-15 01:10:00,
2014-01-14 20:30:00,41.2,33.2,30.18,WNW,293,0.7,0.7,73,0.00,,,0.00,WUHU216HW,2014-01-15 01:30:00,
2014-01-14 20:35:00,41.2,33.2,30.18,WNW,293,0.7,0.7,73,0.00,,,0.00,WUHU216HW,2014-01-15 01:35:00,
2014-01-14 21:00:00,40.0,33.3,30.18,West,270,0.9,0.9,77,0.00,,,0.00,WUHU216HW,2014-01-15 02:00:00,
2014-01-14 21:05:00,40.0,33.3,30.18,NW,315,0.2,0.9,77,0.00,,,0.00,WUHU216HW,2014-01-15 02:05:00,
2014-01-14 21:10:00,40.0,33.3,30.18,NW,315,0.2,0.2,77,0.00,,,0.00,WUHU216HW,2014-01-15 02:10:00,
2014-01-14 21:30:00,39.4,33.1,30.17,WNW,293,0.7,0.7,78,0.00,,,0.00,WUHU216HW,2014-01-15 02:30:00,
2014-01-14 21:35:00,39.4,33.1,30.17,WNW,293,0.7,0.7,78,0.00,,,0.00,WUHU216HW,2014-01-15 02:35:00,
2014-01-14 22:00:00,39.6,32.9,30.16,North,0,1.1,1.1,77,0.00,,,0.00,WUHU216HW,2014-01-15 03:00:00,
2014-01-14 22:05:00,39.6,32.9,30.16,North,0,1.1,1.1,77,0.00,,,0.00,WUHU216HW,2014-01-15 03:05:00,
2014-01-14 22:10:00,39.6,32.9,30.16,North,0,1.1,1.1,77,0.00,,,0.00,WUHU216HW,2014-01-15 03:10:00,
2014-01-14 22:30:00,39.2,32.7,30.16,WNW,293,1.8,1.8,77,0.00,,,0.00,WUHU216HW,2014-01-15 03:30:00,
2014-01-14 22:35:00,39.2,32.7,30.16,WNW,293,1.8,1.8,77,0.00,,,0.00,WUHU216HW,2014-01-15 03:35:00,
2014-01-14 23:00:00,39.4,32.5,30.16,NNE,23,0.0,0.0,76,0.00,,,0.00,WUHU216HW,2014-01-15 04:00:00,
2014-01-14 23:05:00,39.4,32.5,30.16,NNE,23,0.0,0.0,76,0.00,,,0.00,WUHU216HW,2014-01-15 04:05:00,
2014-01-14 23:30:00,38.9,32.3,30.16,West,270,0.2,0.2,77,0.00,,,0.00,WUHU216HW,2014-01-15 04:30:00,
2014-01-14 23:35:00,38.9,32.3,30.16,West,270,0.2,0.2,77,0.00,,,0.00,WUHU216HW,2014-01-15 04:35:00,